createdAt,value
2022-08-11T00:00:09.903Z,42.53
2022-08-11T00:02:41.444Z,42.51
2022-08-11T00:05:13.466Z,42.85
2022-08-11T00:07:46.850Z,43.05
2022-08-11T00:10:17.896Z,43.07
2022-08-11T00:12:53.627Z,42.95
2022-08-11T00:15:22.693Z,43.18
2022-08-11T00:17:57.315Z,43.74
2022-08-11T00:20:32.233Z,44.15
2022-08-11T00:23:06.417Z,43.95
2022-08-11T00:25:39.511Z,43.44
2022-08-11T00:28:25.089Z,43.37
2022-08-11T00:30:56.397Z,43.28
2022-08-11T00:33:41.385Z,43.68
2022-08-11T00:36:16.290Z,43.64
2022-08-11T00:38:46.402Z,43.78
2022-08-11T00:41:29.193Z,43.89
2022-08-11T00:44:15.890Z,43.54
2022-08-11T00:46:52.198Z,44.15
2022-08-11T00:49:31.068Z,43.96
2022-08-11T00:52:14.401Z,43.30
2022-08-11T00:55:16.838Z,43.81
2022-08-11T00:58:21.884Z,43.95
2022-08-11T01:01:10.507Z,44.19
2022-08-11T01:04:00.753Z,44.08
2022-08-11T01:07:02.020Z,44.40
2022-08-11T01:09:50.701Z,44.26
2022-08-11T01:12:45.734Z,44.40
2022-08-11T01:16:00.462Z,43.97
2022-08-11T01:18:57.952Z,44.68
2022-08-11T01:22:12.319Z,44.14
2022-08-11T01:25:12.851Z,44.10
2022-08-11T01:28:29.380Z,43.94
2022-08-11T01:31:31.177Z,44.21
2022-08-11T01:34:35.428Z,44.54
2022-08-11T01:37:31.038Z,44.64
2022-08-11T01:40:37.829Z,44.33
2022-08-11T01:43:51.414Z,44.78
2022-08-11T01:46:27.624Z,44.82
2022-08-11T01:50:06.552Z,45.23
2022-08-11T01:52:09.521Z,45.54
2022-08-11T01:54:45.107Z,45.25
2022-08-11T01:57:22.602Z,45.58
2022-08-11T01:59:55.664Z,45.24
2022-08-11T02:02:47.522Z,45.80
2022-08-11T02:05:48.139Z,45.13
2022-08-11T02:08:33.629Z,45.68
2022-08-11T02:11:35.602Z,45.23
2022-08-11T02:14:16.028Z,45.41
2022-08-11T02:16:57.474Z,45.79
2022-08-11T02:19:52.204Z,46.00
2022-08-11T02:22:51.010Z,45.33
2022-08-11T02:25:29.460Z,46.09
2022-08-11T02:28:03.589Z,46.30
2022-08-11T02:30:38.138Z,45.65
2022-08-11T02:33:25.335Z,46.08
2022-08-11T02:36:04.722Z,45.96
2022-08-11T02:38:43.417Z,46.36
2022-08-11T02:41:34.845Z,46.06
2022-08-11T02:44:22.423Z,46.58
2022-08-11T02:47:02.775Z,46.47
2022-08-11T02:50:02.620Z,46.71
2022-08-11T02:52:45.341Z,47.10
2022-08-11T02:55:47.986Z,46.73
2022-08-11T02:58:16.189Z,46.62
2022-08-11T03:00:55.001Z,46.92
2022-08-11T03:03:31.023Z,47.24
2022-08-11T03:06:15.598Z,46.92
2022-08-11T03:08:54.153Z,47.12
2022-08-11T03:11:57.310Z,47.34
2022-08-11T03:14:48.403Z,47.23
2022-08-11T03:17:32.034Z,48.19
2022-08-11T03:20:16.310Z,47.27
2022-08-11T03:22:53.600Z,47.68
2022-08-11T03:25:31.563Z,47.57
2022-08-11T03:28:09.452Z,47.65
2022-08-11T03:30:47.774Z,47.73
2022-08-11T03:33:43.952Z,47.20
2022-08-11T03:36:21.245Z,47.28
2022-08-11T03:39:02.146Z,47.56
2022-08-11T03:42:01.282Z,48.18
2022-08-11T03:45:00.988Z,47.69
2022-08-11T03:48:01.527Z,47.69
2022-08-11T03:50:55.395Z,47.57
2022-08-11T03:53:40.825Z,48.03
2022-08-11T03:56:38.079Z,47.94
2022-08-11T03:59:35.789Z,48.09
2022-08-11T04:02:42.499Z,48.45
2022-08-11T04:05:40.693Z,49.66
2022-08-11T04:08:38.576Z,49.49
2022-08-11T04:11:35.967Z,49.96
2022-08-11T04:15:01.587Z,49.59
2022-08-11T04:18:06.300Z,49.50
2022-08-11T04:20:55.513Z,49.51
2022-08-11T04:24:36.386Z,49.77
2022-08-11T04:27:13.234Z,49.41
2022-08-11T04:30:03.824Z,48.95
2022-08-11T04:32:54.836Z,47.82
2022-08-11T04:35:35.798Z,47.43
2022-08-11T04:38:45.851Z,47.55
2022-08-11T04:41:34.121Z,47.60
2022-08-11T04:44:44.254Z,47.52
2022-08-11T04:47:59.756Z,47.64
2022-08-11T04:51:08.652Z,47.37
2022-08-11T04:54:15.110Z,46.76
2022-08-11T04:57:03.319Z,46.40
2022-08-11T05:00:19.995Z,46.34
2022-08-11T05:03:18.444Z,46.27
2022-08-11T05:06:21.738Z,46.25
2022-08-11T05:09:13.631Z,45.93
2022-08-11T05:12:07.897Z,45.54
2022-08-11T05:14:57.391Z,45.60
2022-08-11T05:17:53.104Z,45.93
2022-08-11T05:20:40.415Z,45.51
2022-08-11T05:23:28.753Z,45.32
2022-08-11T05:26:46.455Z,45.28
2022-08-11T05:29:45.209Z,45.16
2022-08-11T05:32:34.384Z,45.10
2022-08-11T05:35:07.391Z,43.93
2022-08-11T05:37:42.233Z,43.08
2022-08-11T05:40:30.613Z,41.14
2022-08-11T05:43:19.639Z,39.26
2022-08-11T05:46:15.604Z,36.58
2022-08-11T05:49:02.284Z,34.93
2022-08-11T05:51:55.514Z,32.62
2022-08-11T05:54:45.964Z,31.80
2022-08-11T05:57:45.516Z,31.54
2022-08-11T06:00:12.436Z,30.27
2022-08-11T06:02:44.354Z,30.25
2022-08-11T06:05:14.153Z,29.81
2022-08-11T06:07:48.402Z,29.30
2022-08-11T06:10:27.533Z,29.60
2022-08-11T06:12:56.742Z,29.43
2022-08-11T06:15:27.276Z,29.26
2022-08-11T06:17:56.732Z,28.84
2022-08-11T06:20:25.478Z,28.98
2022-08-11T06:22:59.816Z,28.11
2022-08-11T06:25:32.522Z,28.84
2022-08-11T06:28:01.437Z,27.90
2022-08-11T06:30:40.743Z,28.08
2022-08-11T06:33:11.908Z,27.90
2022-08-11T06:35:58.267Z,27.83
2022-08-11T06:38:42.420Z,27.33
2022-08-11T06:41:33.093Z,28.52
2022-08-11T06:44:17.489Z,27.25
2022-08-11T06:46:50.983Z,26.96
2022-08-11T06:49:38.510Z,26.44
2022-08-11T06:52:34.319Z,27.16
2022-08-11T06:55:05.966Z,27.47
2022-08-11T06:57:53.005Z,27.60
2022-08-11T07:00:29.811Z,27.81
2022-08-11T07:03:03.298Z,27.57
2022-08-11T07:05:43.869Z,27.05
2022-08-11T07:09:00.539Z,28.21
2022-08-11T07:12:18.058Z,27.84
2022-08-11T07:15:08.945Z,28.08
2022-08-11T07:17:42.613Z,27.33
2022-08-11T07:20:28.187Z,26.55
2022-08-11T07:23:15.781Z,28.06
2022-08-11T07:26:05.760Z,27.39
2022-08-11T07:28:53.472Z,28.32
2022-08-11T07:31:29.230Z,27.33
2022-08-11T07:34:10.247Z,30.76
2022-08-11T07:36:47.082Z,28.13
2022-08-11T07:39:20.970Z,27.63
2022-08-11T07:41:49.745Z,27.50
2022-08-11T07:44:18.627Z,27.96
2022-08-11T07:47:07.066Z,27.90
2022-08-11T07:49:54.744Z,26.94
2022-08-11T07:52:30.341Z,27.10
2022-08-11T07:55:00.601Z,27.74
2022-08-11T07:58:14.210Z,27.83
2022-08-11T08:00:55.150Z,29.53
2022-08-11T08:03:54.650Z,31.27
2022-08-11T08:06:41.674Z,30.75
2022-08-11T08:09:29.558Z,31.09
2022-08-11T08:12:15.555Z,31.98
2022-08-11T08:15:01.684Z,33.31
2022-08-11T08:18:09.506Z,33.10
2022-08-11T08:20:39.411Z,31.89
2022-08-11T08:23:08.661Z,29.31
2022-08-11T08:25:40.742Z,30.71
2022-08-11T08:28:13.915Z,29.40
2022-08-11T08:30:47.585Z,31.52
2022-08-11T08:33:20.265Z,30.83
2022-08-11T08:35:54.466Z,31.07
2022-08-11T08:38:24.651Z,29.45
2022-08-11T08:40:56.793Z,30.05
2022-08-11T08:43:25.519Z,32.17
2022-08-11T08:45:58.294Z,32.62
2022-08-11T08:48:27.902Z,31.54
2022-08-11T08:51:20.029Z,32.30
2022-08-11T08:53:53.732Z,32.32
2022-08-11T08:56:29.619Z,31.68
2022-08-11T08:59:00.679Z,30.36
2022-08-11T09:01:31.174Z,32.36
2022-08-11T09:04:04.695Z,30.81
2022-08-11T09:06:40.787Z,31.34
2022-08-11T09:09:09.276Z,33.01
2022-08-11T09:11:57.107Z,33.87
2022-08-11T09:14:48.639Z,33.83
2022-08-11T09:17:18.655Z,32.97
2022-08-11T09:19:47.528Z,32.43
2022-08-11T09:22:42.567Z,31.83
2022-08-11T09:25:28.439Z,32.94
2022-08-11T09:27:57.793Z,33.95
2022-08-11T09:30:27.765Z,32.46
2022-08-11T09:32:58.120Z,31.58
2022-08-11T09:35:28.424Z,31.83
2022-08-11T09:38:15.073Z,32.11
2022-08-11T09:40:45.987Z,31.16
2022-08-11T09:43:40.004Z,30.95
2022-08-11T09:46:09.656Z,30.75
2022-08-11T09:48:40.868Z,31.00
2022-08-11T09:51:10.949Z,32.62
2022-08-11T09:53:41.222Z,31.88
2022-08-11T09:56:33.503Z,30.82
2022-08-11T09:59:04.319Z,31.20
2022-08-11T10:01:38.057Z,30.70
2022-08-11T10:04:10.449Z,30.68
2022-08-11T10:06:57.607Z,29.97
2022-08-11T10:09:27.199Z,30.35
2022-08-11T10:12:02.860Z,29.78
2022-08-11T10:14:50.723Z,29.72
2022-08-11T10:17:22.870Z,29.90
2022-08-11T10:20:04.441Z,30.69
2022-08-11T10:22:52.414Z,31.85
2022-08-11T10:25:38.776Z,30.69
2022-08-11T10:28:30.404Z,30.71
2022-08-11T10:31:18.437Z,30.08
2022-08-11T10:34:03.748Z,30.69
2022-08-11T10:36:33.850Z,30.77
2022-08-11T10:39:03.267Z,30.35
2022-08-11T10:42:03.339Z,30.26
2022-08-11T10:44:40.013Z,30.79
2022-08-11T10:47:29.833Z,30.81
2022-08-11T10:50:12.279Z,29.98
2022-08-11T10:52:58.659Z,30.36
2022-08-11T10:55:45.110Z,29.90
2022-08-11T10:58:31.972Z,30.58
2022-08-11T11:01:00.837Z,30.63
2022-08-11T11:03:34.488Z,30.66
2022-08-11T11:06:12.544Z,29.44
2022-08-11T11:09:04.473Z,29.25
2022-08-11T11:11:54.984Z,29.41
2022-08-11T11:14:46.355Z,28.84
2022-08-11T11:17:45.034Z,29.02
2022-08-11T11:20:36.764Z,28.27
2022-08-11T11:23:07.572Z,29.01
2022-08-11T11:26:06.611Z,29.45
2022-08-11T11:28:51.385Z,29.75
2022-08-11T11:31:35.082Z,30.24
2022-08-11T11:34:16.003Z,29.28
2022-08-11T11:36:48.701Z,29.70
2022-08-11T11:39:19.935Z,30.42
2022-08-11T11:41:48.056Z,29.11
2022-08-11T11:44:16.897Z,29.48
2022-08-11T11:46:46.527Z,29.45
2022-08-11T11:49:17.376Z,29.56
2022-08-11T11:51:50.020Z,28.78
2022-08-11T11:54:22.246Z,28.97
2022-08-11T11:56:53.170Z,29.35
2022-08-11T11:59:39.978Z,29.57
2022-08-11T12:02:11.752Z,28.81
2022-08-11T12:04:43.923Z,28.45
2022-08-11T12:07:30.987Z,29.54
2022-08-11T12:09:59.976Z,29.25
2022-08-11T12:12:46.695Z,27.98
2022-08-11T12:15:14.738Z,27.57
2022-08-11T12:17:42.476Z,27.27
2022-08-11T12:20:31.894Z,28.23
2022-08-11T12:23:17.226Z,28.13
2022-08-11T12:26:25.339Z,27.68
2022-08-11T12:28:48.945Z,27.28
2022-08-11T12:31:16.848Z,28.55
2022-08-11T12:33:47.089Z,27.45
2022-08-11T12:36:16.485Z,27.88
2022-08-11T12:38:51.278Z,27.95
2022-08-11T12:41:38.124Z,27.68
2022-08-11T12:44:27.788Z,27.67
2022-08-11T12:46:57.526Z,26.87
2022-08-11T12:49:45.482Z,27.89
2022-08-11T12:52:22.316Z,27.19
2022-08-11T12:54:58.980Z,26.67
2022-08-11T12:57:51.058Z,26.59
2022-08-11T13:00:38.092Z,25.85
2022-08-11T13:03:26.076Z,25.56
2022-08-11T13:05:56.577Z,26.82
2022-08-11T13:08:25.857Z,26.77
2022-08-11T13:11:14.614Z,27.01
2022-08-11T13:13:53.995Z,26.31
2022-08-11T13:16:25.036Z,26.69
2022-08-11T13:18:53.687Z,26.58
2022-08-11T13:21:22.943Z,26.14
2022-08-11T13:24:01.065Z,25.93
2022-08-11T13:26:46.842Z,26.43
2022-08-11T13:29:21.648Z,26.42
2022-08-11T13:31:49.820Z,26.25
2022-08-11T13:34:20.011Z,25.73
2022-08-11T13:36:52.807Z,26.41
2022-08-11T13:39:23.952Z,26.72
2022-08-11T13:41:56.501Z,25.86
2022-08-11T13:44:27.060Z,26.32
2022-08-11T13:46:57.261Z,26.70
2022-08-11T13:49:26.085Z,25.80
2022-08-11T13:51:56.233Z,26.14
2022-08-11T13:54:26.406Z,26.07
2022-08-11T13:56:57.845Z,26.47
2022-08-11T13:59:30.080Z,26.74
2022-08-11T14:02:21.902Z,26.10
2022-08-11T14:04:55.068Z,25.73
2022-08-11T14:07:26.641Z,25.30
2022-08-11T14:09:58.578Z,25.90
2022-08-11T14:12:48.092Z,26.54
2022-08-11T14:15:20.834Z,26.63
2022-08-11T14:17:53.124Z,25.91
2022-08-11T14:20:38.062Z,26.08
2022-08-11T14:23:08.329Z,25.69
2022-08-11T14:26:00.301Z,26.44
2022-08-11T14:28:33.722Z,25.10
2022-08-11T14:31:05.261Z,24.90
2022-08-11T14:33:58.858Z,25.57
2022-08-11T14:36:24.717Z,25.75
2022-08-11T14:38:54.453Z,25.06
2022-08-11T14:42:07.582Z,25.22
2022-08-11T14:44:49.715Z,26.18
2022-08-11T14:47:24.008Z,26.03
2022-08-11T14:50:09.548Z,25.55
2022-08-11T14:52:43.999Z,25.80
2022-08-11T14:55:30.706Z,25.59
2022-08-11T14:57:59.256Z,25.24
2022-08-11T15:00:29.241Z,25.17
2022-08-11T15:03:12.612Z,24.77
2022-08-11T15:05:55.679Z,25.97
2022-08-11T15:08:42.577Z,25.37
2022-08-11T15:11:32.175Z,25.76
2022-08-11T15:14:01.268Z,25.58
2022-08-11T15:16:48.891Z,26.41
2022-08-11T15:19:19.542Z,26.55
2022-08-11T15:22:04.824Z,25.36
2022-08-11T15:24:33.693Z,26.10
2022-08-11T15:27:22.808Z,25.41
2022-08-11T15:30:10.529Z,25.88
2022-08-11T15:33:09.061Z,25.40
2022-08-11T15:35:56.162Z,25.78
2022-08-11T15:38:25.295Z,25.94
2022-08-11T15:41:14.672Z,25.79
2022-08-11T15:44:06.866Z,25.85
2022-08-11T15:46:40.541Z,25.53
2022-08-11T15:49:13.954Z,26.64
2022-08-11T15:52:00.409Z,26.05
2022-08-11T15:54:32.914Z,26.92
2022-08-11T15:57:02.555Z,25.96
2022-08-11T15:59:50.078Z,26.33
2022-08-11T16:02:51.807Z,26.75
2022-08-11T16:05:44.921Z,26.18
2022-08-11T16:08:10.312Z,26.15
2022-08-11T16:10:42.067Z,25.80
2022-08-11T16:13:33.591Z,26.67
2022-08-11T16:16:18.707Z,26.65
2022-08-11T16:18:54.509Z,26.73
2022-08-11T16:21:35.140Z,26.65
2022-08-11T16:24:07.663Z,27.23
2022-08-11T16:27:09.237Z,26.51
2022-08-11T16:29:28.055Z,26.08
2022-08-11T16:32:14.559Z,26.70
2022-08-11T16:35:02.583Z,26.63
2022-08-11T16:37:51.570Z,26.59
2022-08-11T16:40:20.829Z,26.22
2022-08-11T16:43:10.670Z,26.80
2022-08-11T16:45:58.378Z,26.68
2022-08-11T16:48:37.181Z,26.73
2022-08-11T16:51:07.736Z,26.76
2022-08-11T16:54:03.422Z,26.28
2022-08-11T16:56:30.893Z,26.27
2022-08-11T16:59:17.037Z,26.46
2022-08-11T17:01:53.406Z,26.10
2022-08-11T17:04:53.941Z,26.18
2022-08-11T17:07:43.182Z,26.18
2022-08-11T17:10:50.432Z,26.24
2022-08-11T17:13:32.638Z,26.35
2022-08-11T17:16:08.422Z,25.85
2022-08-11T17:18:44.091Z,25.90
2022-08-11T17:21:20.779Z,26.33
2022-08-11T17:23:51.757Z,25.84
2022-08-11T17:26:26.038Z,25.91
2022-08-11T17:28:58.691Z,26.04
2022-08-11T17:31:47.772Z,25.97
2022-08-11T17:34:33.926Z,26.25
2022-08-11T17:37:02.283Z,26.30
2022-08-11T17:39:32.666Z,25.85
2022-08-11T17:42:20.480Z,25.72
2022-08-11T17:45:07.499Z,26.09
2022-08-11T17:47:53.504Z,26.44
2022-08-11T17:50:22.018Z,25.58
2022-08-11T17:53:08.503Z,25.85
2022-08-11T17:55:56.064Z,26.10
2022-08-11T17:58:46.252Z,26.06
2022-08-11T18:01:15.594Z,26.25
2022-08-11T18:03:53.213Z,26.48
2022-08-11T18:06:33.579Z,26.63
2022-08-11T18:09:22.489Z,26.47
2022-08-11T18:12:11.656Z,26.25
2022-08-11T18:15:02.880Z,26.80
2022-08-11T18:17:48.763Z,26.96
2022-08-11T18:20:34.048Z,26.46
2022-08-11T18:23:40.708Z,26.96
2022-08-11T18:26:31.266Z,27.42
2022-08-11T18:29:17.664Z,27.34
2022-08-11T18:32:08.500Z,27.23
2022-08-11T18:34:59.097Z,27.56
2022-08-11T18:37:46.106Z,27.93
2022-08-11T18:40:36.188Z,27.50
2022-08-11T18:43:27.347Z,27.80
2022-08-11T18:46:18.481Z,28.03
2022-08-11T18:49:11.786Z,28.34
2022-08-11T18:52:03.924Z,28.88
2022-08-11T18:54:53.225Z,29.20
2022-08-11T18:57:49.528Z,29.15
2022-08-11T19:00:40.526Z,29.09
2022-08-11T19:03:27.792Z,29.50
2022-08-11T19:06:38.954Z,29.25
2022-08-11T19:09:25.151Z,29.70
2022-08-11T19:12:11.972Z,29.85
2022-08-11T19:15:00.019Z,30.47
2022-08-11T19:17:48.005Z,30.64
2022-08-11T19:20:37.990Z,30.29
2022-08-11T19:23:27.387Z,30.63
2022-08-11T19:26:13.337Z,31.19
2022-08-11T19:29:01.762Z,30.76
2022-08-11T19:31:48.210Z,31.36
2022-08-11T19:34:35.592Z,31.11
2022-08-11T19:37:24.969Z,31.28
2022-08-11T19:40:14.328Z,32.01
2022-08-11T19:43:01.772Z,31.44
2022-08-11T19:45:52.244Z,32.03
2022-08-11T19:48:39.765Z,32.34
2022-08-11T19:51:26.827Z,31.99
2022-08-11T19:54:12.866Z,32.34
2022-08-11T19:57:00.920Z,32.13
2022-08-11T19:59:46.825Z,32.33
2022-08-11T20:02:32.060Z,32.98
2022-08-11T20:05:17.583Z,32.79
2022-08-11T20:08:05.260Z,32.92
2022-08-11T20:10:51.916Z,32.30
2022-08-11T20:13:41.636Z,32.61
2022-08-11T20:16:31.063Z,33.09
2022-08-11T20:19:18.573Z,32.57
2022-08-11T20:22:08.205Z,32.88
2022-08-11T20:24:56.731Z,32.58
2022-08-11T20:27:43.566Z,33.09
2022-08-11T20:30:31.976Z,32.81
2022-08-11T20:33:17.989Z,33.34
2022-08-11T20:36:06.948Z,32.72
2022-08-11T20:38:53.649Z,33.05
2022-08-11T20:41:57.744Z,33.26
2022-08-11T20:44:45.973Z,33.07
2022-08-11T20:47:59.101Z,33.15
2022-08-11T20:50:40.408Z,33.49
2022-08-11T20:53:26.916Z,33.49
2022-08-11T20:56:14.024Z,32.86
2022-08-11T20:59:14.370Z,33.64
2022-08-11T21:02:05.272Z,33.44
2022-08-11T21:04:57.718Z,33.22
2022-08-11T21:07:55.323Z,33.38
2022-08-11T21:10:44.776Z,33.53
2022-08-11T21:13:34.325Z,33.63
2022-08-11T21:16:26.614Z,33.82
2022-08-11T21:19:19.155Z,33.88
2022-08-11T21:22:28.005Z,34.42
2022-08-11T21:25:16.404Z,34.76
2022-08-11T21:28:04.814Z,34.76
2022-08-11T21:30:57.518Z,34.44
2022-08-11T21:33:46.263Z,34.83
2022-08-11T21:36:33.567Z,35.00
2022-08-11T21:39:24.756Z,34.96
2022-08-11T21:42:12.446Z,34.99
2022-08-11T21:44:59.861Z,35.18
2022-08-11T21:47:45.818Z,35.43
2022-08-11T21:50:32.046Z,35.85
2022-08-11T21:53:18.215Z,35.69
2022-08-11T21:56:05.255Z,35.93
2022-08-11T21:58:51.630Z,35.78
2022-08-11T22:01:37.115Z,36.62
2022-08-11T22:04:24.410Z,36.48
2022-08-11T22:07:10.230Z,36.09
2022-08-11T22:09:55.890Z,36.00
2022-08-11T22:12:45.129Z,36.87
2022-08-11T22:15:31.390Z,36.64
2022-08-11T22:18:16.916Z,36.53
2022-08-11T22:21:03.269Z,36.35
2022-08-11T22:23:51.390Z,36.66
2022-08-11T22:26:39.594Z,36.66
2022-08-11T22:29:50.146Z,37.02
2022-08-11T22:32:36.640Z,36.69
2022-08-11T22:35:23.343Z,37.11
2022-08-11T22:38:09.509Z,37.12
2022-08-11T22:40:55.805Z,37.01
2022-08-11T22:43:41.167Z,37.18
2022-08-11T22:46:27.889Z,37.12
2022-08-11T22:49:14.889Z,37.44
2022-08-11T22:52:02.892Z,37.85
2022-08-11T22:54:49.691Z,37.48
2022-08-11T22:57:35.245Z,37.84
2022-08-11T23:00:20.958Z,37.65
2022-08-11T23:03:08.346Z,38.11
2022-08-11T23:05:59.087Z,38.21
2022-08-11T23:08:45.068Z,38.11
2022-08-11T23:12:06.206Z,38.44
2022-08-11T23:14:35.623Z,39.00
2022-08-11T23:17:21.199Z,39.13
2022-08-11T23:20:17.654Z,39.11
2022-08-11T23:23:14.473Z,38.95
2022-08-11T23:26:01.382Z,38.94
2022-08-11T23:28:50.496Z,38.81
2022-08-11T23:31:51.039Z,38.95
2022-08-11T23:35:04.814Z,39.09
2022-08-11T23:37:46.418Z,38.94
2022-08-11T23:40:31.480Z,38.76
2022-08-11T23:43:16.734Z,38.63
2022-08-11T23:46:02.228Z,38.83
2022-08-11T23:48:49.676Z,39.02
2022-08-11T23:51:40.360Z,38.87
2022-08-11T23:54:28.193Z,38.71
2022-08-11T23:57:13.346Z,38.63
2022-08-11T23:59:58.744Z,38.63
